createdAt,value
2017-10-06T00:02:16.694Z,7.80
2017-10-06T00:04:43.287Z,7.80
2017-10-06T00:07:09.730Z,7.80
2017-10-06T00:09:36.580Z,7.80
2017-10-06T00:12:09.880Z,7.80
2017-10-06T00:14:36.298Z,7.80
2017-10-06T00:17:02.838Z,7.80
2017-10-06T00:19:29.455Z,7.80
2017-10-06T00:21:56.776Z,7.80
2017-10-06T00:24:23.243Z,7.80
2017-10-06T00:26:49.663Z,7.70
2017-10-06T00:29:16.107Z,7.70
2017-10-06T00:31:42.545Z,7.80
2017-10-06T00:34:09.024Z,7.70
2017-10-06T00:36:35.511Z,7.70
2017-10-06T00:39:02.757Z,7.60
2017-10-06T00:41:29.214Z,7.60
2017-10-06T00:43:56.127Z,7.60
2017-10-06T00:46:22.581Z,7.60
2017-10-06T00:48:49.080Z,7.60
2017-10-06T00:51:16.240Z,7.50
2017-10-06T00:53:42.722Z,7.50
2017-10-06T00:56:09.194Z,7.50
2017-10-06T00:58:36.410Z,7.60
2017-10-06T01:01:02.865Z,7.60
2017-10-06T01:03:29.288Z,7.60
2017-10-06T01:05:55.971Z,7.60
2017-10-06T01:08:22.525Z,7.50
2017-10-06T01:10:50.498Z,7.50
2017-10-06T01:13:17.262Z,7.50
2017-10-06T01:15:44.575Z,7.50
2017-10-06T01:18:11.048Z,7.40
2017-10-06T01:20:37.525Z,7.50
2017-10-06T01:23:04.008Z,7.50
2017-10-06T01:25:30.507Z,7.40
2017-10-06T01:27:56.956Z,7.40
2017-10-06T01:30:24.168Z,7.50
2017-10-06T01:32:50.660Z,7.40
2017-10-06T01:35:17.114Z,7.40
2017-10-06T01:37:44.315Z,7.20
2017-10-06T01:40:10.789Z,7.20
2017-10-06T01:42:37.215Z,7.20
2017-10-06T01:45:04.432Z,7.20
2017-10-06T01:47:30.902Z,7.20
2017-10-06T01:49:58.161Z,7.20
2017-10-06T01:52:24.746Z,7.20
2017-10-06T01:54:51.267Z,7.20
2017-10-06T01:57:21.482Z,7.30
2017-10-06T01:59:48.027Z,7.20
2017-10-06T02:02:14.586Z,7.40
2017-10-06T02:04:41.138Z,7.40
2017-10-06T02:07:07.602Z,7.50
2017-10-06T02:09:34.111Z,7.60
2017-10-06T02:12:01.308Z,7.90
2017-10-06T02:14:29.158Z,8.00
2017-10-06T02:16:55.826Z,7.90
2017-10-06T02:19:22.302Z,8.10
2017-10-06T02:21:48.760Z,8.20
2017-10-06T02:24:15.264Z,8.20
2017-10-06T02:26:41.742Z,8.30
2017-10-06T02:29:08.203Z,8.30
2017-10-06T02:31:35.420Z,8.30
2017-10-06T02:34:01.926Z,8.20
2017-10-06T02:36:28.348Z,8.20
2017-10-06T02:38:54.823Z,8.10
2017-10-06T02:41:21.279Z,8.00
2017-10-06T02:43:48.511Z,7.90
2017-10-06T02:46:14.928Z,7.90
2017-10-06T02:48:41.411Z,7.80
2017-10-06T02:51:07.845Z,7.80
2017-10-06T02:53:34.311Z,7.60
2017-10-06T02:56:01.635Z,7.50
2017-10-06T02:58:28.352Z,7.50
2017-10-06T03:00:54.828Z,7.40
2017-10-06T03:03:22.006Z,7.50
2017-10-06T03:05:48.464Z,7.50
2017-10-06T03:08:14.863Z,7.60
2017-10-06T03:10:42.054Z,7.80
2017-10-06T03:13:08.511Z,7.80
2017-10-06T03:15:34.953Z,7.90
2017-10-06T03:18:01.631Z,8.10
2017-10-06T03:20:28.079Z,8.10
2017-10-06T03:22:54.492Z,8.20
2017-10-06T03:25:20.938Z,8.30
2017-10-06T03:27:47.375Z,8.40
2017-10-06T03:30:13.801Z,8.40
2017-10-06T03:32:40.954Z,8.40
2017-10-06T03:35:07.385Z,8.40
2017-10-06T03:37:33.919Z,8.40
2017-10-06T03:40:00.323Z,8.50
2017-10-06T03:42:27.479Z,8.50
2017-10-06T03:44:53.964Z,8.50
2017-10-06T03:47:21.233Z,8.60
2017-10-06T03:49:47.679Z,8.60
2017-10-06T03:52:15.652Z,8.60
2017-10-06T03:54:43.091Z,8.70
2017-10-06T03:57:09.547Z,8.70
2017-10-06T03:59:35.975Z,8.70
2017-10-06T04:02:02.436Z,8.80
2017-10-06T04:04:28.879Z,8.80
2017-10-06T04:06:55.504Z,8.80
2017-10-06T04:09:22.871Z,8.80
2017-10-06T04:11:49.305Z,8.80
2017-10-06T04:14:16.462Z,8.80
2017-10-06T04:16:43.648Z,8.70
2017-10-06T04:19:10.131Z,8.70
2017-10-06T04:21:37.235Z,8.70
2017-10-06T04:24:03.932Z,8.70
2017-10-06T04:26:30.627Z,8.70
2017-10-06T04:28:57.847Z,8.70
2017-10-06T04:31:24.284Z,8.70
2017-10-06T04:33:50.738Z,8.80
2017-10-06T04:36:17.398Z,8.80
2017-10-06T04:38:43.982Z,8.80
2017-10-06T04:41:10.453Z,8.80
2017-10-06T04:43:37.659Z,8.90
2017-10-06T04:46:04.089Z,8.80
2017-10-06T04:48:30.537Z,8.90
2017-10-06T04:50:57.040Z,8.90
2017-10-06T04:53:24.754Z,8.90
2017-10-06T04:55:52.554Z,8.90
2017-10-06T04:58:20.063Z,8.90
2017-10-06T05:00:46.567Z,8.90
2017-10-06T05:03:13.129Z,8.90
2017-10-06T05:05:39.733Z,8.80
2017-10-06T05:08:07.311Z,8.80
2017-10-06T05:10:35.364Z,8.80
2017-10-06T05:13:02.188Z,8.70
2017-10-06T05:15:29.747Z,8.60
2017-10-06T05:17:57.109Z,8.60
2017-10-06T05:20:24.787Z,8.60
2017-10-06T05:22:52.096Z,8.50
2017-10-06T05:25:18.608Z,8.50
2017-10-06T05:27:46.002Z,8.40
2017-10-06T05:30:14.013Z,8.20
2017-10-06T05:32:40.622Z,8.30
2017-10-06T05:35:08.700Z,8.30
2017-10-06T05:37:35.268Z,8.10
2017-10-06T05:40:02.690Z,8.10
2017-10-06T05:42:30.256Z,8.00
2017-10-06T05:44:58.170Z,7.90
2017-10-06T05:47:26.278Z,7.90
2017-10-06T05:49:53.765Z,7.80
2017-10-06T05:52:20.990Z,7.80
2017-10-06T05:54:47.502Z,7.90
2017-10-06T05:57:16.698Z,7.90
2017-10-06T05:59:45.468Z,7.90
2017-10-06T06:02:13.295Z,8.00
2017-10-06T06:04:39.846Z,8.00
2017-10-06T06:07:08.133Z,8.00
2017-10-06T06:09:35.474Z,8.10
2017-10-06T06:12:02.054Z,8.10
2017-10-06T06:14:28.629Z,8.10
2017-10-06T06:16:55.944Z,8.10
2017-10-06T06:19:22.543Z,8.00
2017-10-06T06:21:50.442Z,8.00
2017-10-06T06:24:17.709Z,8.00
2017-10-06T06:26:44.906Z,8.10
2017-10-06T06:29:12.240Z,8.00
2017-10-06T06:31:39.630Z,8.10
2017-10-06T06:34:06.194Z,7.80
2017-10-06T06:36:33.432Z,8.20
2017-10-06T06:39:01.607Z,8.40
2017-10-06T06:41:30.509Z,8.50
2017-10-06T06:43:58.643Z,8.80
2017-10-06T06:46:25.231Z,9.00
2017-10-06T06:48:51.890Z,9.10
2017-10-06T06:51:21.171Z,9.30
2017-10-06T06:53:48.586Z,9.30
2017-10-06T06:56:16.961Z,9.40
2017-10-06T06:58:43.874Z,9.40
2017-10-06T07:01:12.292Z,9.60
2017-10-06T07:03:39.329Z,9.50
2017-10-06T07:06:06.025Z,9.60
2017-10-06T07:08:32.871Z,9.70
2017-10-06T07:11:01.177Z,9.70
2017-10-06T07:13:28.699Z,9.80
2017-10-06T07:15:55.990Z,10.00
2017-10-06T07:18:22.599Z,10.20
2017-10-06T07:20:53.022Z,10.30
2017-10-06T07:23:21.307Z,10.30
2017-10-06T07:25:50.078Z,10.40
2017-10-06T07:28:19.349Z,10.40
2017-10-06T07:30:46.114Z,10.50
2017-10-06T07:33:15.318Z,10.50
2017-10-06T07:35:43.309Z,10.40
2017-10-06T07:38:10.387Z,10.50
2017-10-06T07:40:37.717Z,10.60
2017-10-06T07:43:04.543Z,10.60
2017-10-06T07:45:32.050Z,10.70
2017-10-06T07:47:58.647Z,10.80
2017-10-06T07:50:25.276Z,10.90
2017-10-06T07:52:54.207Z,11.00
2017-10-06T07:55:21.493Z,11.10
2017-10-06T07:57:51.610Z,11.00
2017-10-06T08:00:21.153Z,11.00
2017-10-06T08:02:49.358Z,11.20
2017-10-06T08:05:17.741Z,12.00
2017-10-06T08:07:44.812Z,12.00
2017-10-06T08:10:11.590Z,12.50
2017-10-06T08:12:39.437Z,12.50
2017-10-06T08:15:07.582Z,12.50
2017-10-06T08:17:35.096Z,12.60
2017-10-06T08:20:02.463Z,13.20
2017-10-06T08:22:28.979Z,13.30
2017-10-06T08:24:57.392Z,13.30
2017-10-06T08:27:24.059Z,13.30
2017-10-06T08:29:50.588Z,13.40
2017-10-06T08:32:17.220Z,13.40
2017-10-06T08:34:45.228Z,13.20
2017-10-06T08:37:12.499Z,13.20
2017-10-06T08:39:39.807Z,13.00
2017-10-06T08:42:07.819Z,12.90
2017-10-06T08:44:34.351Z,12.70
2017-10-06T08:47:03.137Z,12.40
2017-10-06T08:49:31.251Z,12.00
2017-10-06T08:51:59.727Z,11.90
2017-10-06T08:54:27.594Z,11.70
2017-10-06T08:56:54.119Z,11.40
2017-10-06T08:59:20.738Z,11.30
2017-10-06T09:01:48.207Z,11.20
2017-10-06T09:04:14.858Z,11.10
2017-10-06T09:06:42.118Z,11.00
2017-10-06T09:09:08.680Z,10.90
2017-10-06T09:11:36.202Z,10.90
2017-10-06T09:14:02.768Z,10.90
2017-10-06T09:16:29.969Z,10.80
2017-10-06T09:18:57.316Z,10.90
2017-10-06T09:21:24.901Z,10.60
2017-10-06T09:23:51.392Z,11.00
2017-10-06T09:26:20.438Z,11.10
2017-10-06T09:28:48.555Z,11.10
2017-10-06T09:31:16.838Z,11.40
2017-10-06T09:33:46.368Z,11.50
2017-10-06T09:36:14.058Z,11.40
2017-10-06T09:38:41.311Z,11.40
2017-10-06T09:41:08.585Z,11.00
2017-10-06T09:43:37.639Z,10.80
2017-10-06T09:46:06.789Z,10.80
2017-10-06T09:48:33.308Z,10.80
2017-10-06T09:50:59.833Z,10.80
2017-10-06T09:53:26.974Z,10.90
2017-10-06T09:55:53.497Z,11.00
2017-10-06T09:58:20.092Z,11.00
2017-10-06T10:00:46.756Z,11.10
2017-10-06T10:03:15.068Z,11.30
2017-10-06T10:05:45.216Z,11.60
2017-10-06T10:08:12.447Z,12.10
2017-10-06T10:10:42.275Z,12.80
2017-10-06T10:13:11.304Z,12.80
2017-10-06T10:15:38.539Z,13.20
2017-10-06T10:18:05.646Z,13.20
2017-10-06T10:20:33.037Z,13.20
2017-10-06T10:23:01.215Z,13.50
2017-10-06T10:25:30.000Z,13.40
2017-10-06T10:27:56.580Z,13.80
2017-10-06T10:30:23.223Z,14.00
2017-10-06T10:32:50.071Z,14.60
2017-10-06T10:35:18.729Z,14.70
2017-10-06T10:37:45.326Z,14.40
2017-10-06T10:40:12.728Z,13.90
2017-10-06T10:42:40.997Z,13.50
2017-10-06T10:45:07.619Z,13.50
2017-10-06T10:47:34.836Z,13.20
2017-10-06T10:50:01.424Z,12.90
2017-10-06T10:52:28.851Z,13.10
2017-10-06T10:54:56.647Z,13.10
2017-10-06T10:57:24.531Z,13.50
2017-10-06T10:59:51.857Z,14.10
2017-10-06T11:02:20.030Z,14.10
2017-10-06T11:04:47.382Z,13.80
2017-10-06T11:07:13.961Z,13.80
2017-10-06T11:09:41.539Z,14.00
2017-10-06T11:12:08.933Z,14.20
2017-10-06T11:14:36.410Z,14.80
2017-10-06T11:17:03.822Z,14.80
2017-10-06T11:19:30.502Z,15.40
2017-10-06T11:21:57.069Z,15.20
2017-10-06T11:24:24.730Z,14.60
2017-10-06T11:26:53.253Z,14.50
2017-10-06T11:29:22.334Z,13.50
2017-10-06T11:31:49.673Z,13.50
2017-10-06T11:34:16.315Z,13.20
2017-10-06T11:36:42.988Z,12.90
2017-10-06T11:39:11.080Z,12.70
2017-10-06T11:41:37.846Z,12.50
2017-10-06T11:44:04.394Z,12.40
2017-10-06T11:46:31.071Z,12.20
2017-10-06T11:48:57.641Z,12.10
2017-10-06T11:51:25.670Z,12.00
2017-10-06T11:53:52.433Z,11.80
2017-10-06T11:56:18.954Z,11.60
2017-10-06T11:58:45.553Z,11.20
2017-10-06T12:01:15.442Z,10.40
2017-10-06T12:03:46.591Z,10.30
2017-10-06T12:06:13.323Z,10.30
2017-10-06T12:08:41.518Z,10.20
2017-10-06T12:11:08.091Z,10.20
2017-10-06T12:13:35.507Z,10.00
2017-10-06T12:16:03.398Z,10.00
2017-10-06T12:18:31.284Z,10.10
2017-10-06T12:20:57.936Z,10.20
2017-10-06T12:23:25.112Z,10.50
2017-10-06T12:25:51.706Z,10.80
2017-10-06T12:28:19.036Z,11.30
2017-10-06T12:30:45.581Z,11.30
2017-10-06T12:33:12.113Z,11.40
2017-10-06T12:35:40.285Z,11.40
2017-10-06T12:38:06.911Z,11.50
2017-10-06T12:40:34.545Z,11.80
2017-10-06T12:43:01.899Z,12.50
2017-10-06T12:45:30.306Z,12.50
2017-10-06T12:47:57.628Z,12.90
2017-10-06T12:50:25.653Z,12.80
2017-10-06T12:52:54.332Z,12.80
2017-10-06T12:55:21.922Z,12.80
2017-10-06T12:57:51.256Z,13.10
2017-10-06T13:00:17.954Z,13.00
2017-10-06T13:02:47.107Z,13.20
2017-10-06T13:05:15.150Z,13.10
2017-10-06T13:07:43.201Z,13.10
2017-10-06T13:10:09.795Z,13.00
2017-10-06T13:12:36.318Z,13.20
2017-10-06T13:15:02.822Z,13.40
2017-10-06T13:20:24.014Z,13.40
2017-10-06T13:22:50.463Z,13.40
2017-10-06T13:25:17.599Z,13.20
2017-10-06T13:27:44.019Z,13.10
2017-10-06T13:30:10.507Z,13.10
2017-10-06T13:32:36.993Z,12.90
2017-10-06T13:35:03.621Z,13.10
2017-10-06T13:37:30.069Z,13.40
2017-10-06T13:39:56.481Z,13.90
2017-10-06T13:42:22.880Z,14.10
2017-10-06T13:44:50.066Z,14.50
2017-10-06T13:47:17.257Z,14.50
2017-10-06T13:49:44.447Z,14.50
2017-10-06T13:52:10.922Z,14.50
2017-10-06T13:54:37.356Z,14.60
2017-10-06T13:57:03.830Z,14.50
2017-10-06T13:59:31.086Z,14.30
2017-10-06T14:01:57.546Z,14.20
2017-10-06T14:04:24.710Z,14.10
2017-10-06T14:06:51.292Z,14.10
2017-10-06T14:09:18.589Z,13.80
2017-10-06T14:11:45.741Z,13.80
2017-10-06T14:14:12.187Z,13.80
2017-10-06T14:16:38.699Z,14.10
2017-10-06T14:19:05.225Z,14.20
2017-10-06T14:21:31.811Z,14.40
2017-10-06T14:23:58.273Z,14.60
2017-10-06T14:26:25.096Z,14.70
2017-10-06T14:28:52.256Z,14.40
2017-10-06T14:31:18.704Z,14.40
2017-10-06T14:33:45.144Z,14.30
2017-10-06T14:36:11.522Z,14.20
2017-10-06T14:38:39.385Z,14.00
2017-10-06T14:41:05.808Z,14.00
2017-10-06T14:43:32.252Z,13.80
2017-10-06T14:45:58.669Z,13.60
2017-10-06T14:48:25.321Z,13.30
2017-10-06T14:50:51.795Z,13.00
2017-10-06T14:53:19.497Z,12.80
2017-10-06T14:55:46.019Z,12.70
2017-10-06T14:58:12.408Z,12.80
2017-10-06T15:00:38.868Z,12.90
2017-10-06T15:03:05.266Z,13.00
2017-10-06T15:05:31.692Z,12.90
2017-10-06T15:07:58.133Z,12.80
2017-10-06T15:10:24.619Z,12.50
2017-10-06T15:12:51.200Z,12.30
2017-10-06T15:15:18.385Z,12.10
2017-10-06T15:17:44.884Z,12.00
2017-10-06T15:20:11.288Z,11.90
2017-10-06T15:22:39.196Z,11.70
2017-10-06T15:25:06.413Z,11.60
2017-10-06T15:27:32.839Z,11.60
2017-10-06T15:29:59.352Z,11.60
2017-10-06T15:32:25.836Z,11.60
2017-10-06T15:34:53.139Z,11.60
2017-10-06T15:37:19.617Z,11.70
2017-10-06T15:39:46.756Z,11.70
2017-10-06T15:42:13.219Z,11.60
2017-10-06T15:44:39.669Z,11.60
2017-10-06T15:47:06.097Z,11.60
2017-10-06T15:49:33.230Z,11.60
2017-10-06T15:51:59.622Z,11.50
2017-10-06T15:54:26.036Z,11.50
2017-10-06T15:56:53.148Z,11.30
2017-10-06T15:59:19.521Z,11.30
2017-10-06T16:01:46.669Z,11.20
2017-10-06T16:04:13.065Z,11.10
2017-10-06T16:06:40.368Z,11.00
2017-10-06T16:09:06.805Z,10.90
2017-10-06T16:11:33.213Z,10.90
2017-10-06T16:13:59.606Z,10.80
2017-10-06T16:16:26.124Z,10.90
2017-10-06T16:18:52.573Z,10.90
2017-10-06T16:21:19.052Z,10.90
2017-10-06T16:23:45.452Z,10.90
2017-10-06T16:26:13.674Z,10.90
2017-10-06T16:28:40.157Z,10.90
2017-10-06T16:31:06.558Z,10.80
2017-10-06T16:33:35.994Z,10.70
2017-10-06T16:36:02.417Z,10.60
2017-10-06T16:38:28.868Z,10.50
2017-10-06T16:40:55.259Z,10.50
2017-10-06T16:43:21.700Z,10.40
2017-10-06T16:45:48.101Z,10.40
2017-10-06T16:48:14.603Z,10.40
2017-10-06T16:50:40.993Z,10.40
2017-10-06T16:53:08.150Z,10.30
2017-10-06T16:55:34.556Z,10.30
2017-10-06T16:58:00.937Z,10.30
2017-10-06T17:00:28.125Z,10.20
2017-10-06T17:02:55.319Z,10.10
2017-10-06T17:05:21.764Z,10.10
2017-10-06T17:07:48.167Z,10.10
2017-10-06T17:10:14.620Z,10.00
2017-10-06T17:12:41.035Z,10.00
2017-10-06T17:15:08.269Z,9.80
2017-10-06T17:17:34.811Z,9.80
2017-10-06T17:20:02.041Z,9.70
2017-10-06T17:22:28.580Z,9.70
2017-10-06T17:24:55.049Z,9.70
2017-10-06T17:27:21.479Z,9.60
2017-10-06T17:29:50.017Z,9.60
2017-10-06T17:32:16.440Z,9.70
2017-10-06T17:34:43.588Z,9.70
2017-10-06T17:37:09.954Z,9.70
2017-10-06T17:39:36.337Z,9.70
2017-10-06T17:42:02.760Z,9.70
2017-10-06T17:44:29.869Z,9.50
2017-10-06T17:46:56.221Z,9.50
2017-10-06T17:49:22.570Z,9.50
2017-10-06T17:51:49.748Z,9.50
2017-10-06T17:54:16.185Z,9.40
2017-10-06T17:56:43.317Z,9.40
2017-10-06T17:59:09.731Z,9.30
2017-10-06T18:01:36.833Z,9.40
2017-10-06T18:04:03.177Z,9.40
2017-10-06T18:06:29.557Z,9.40
2017-10-06T18:08:56.657Z,9.40
2017-10-06T18:11:22.997Z,9.30
2017-10-06T18:13:49.737Z,9.40
2017-10-06T18:16:16.132Z,9.40
2017-10-06T18:18:42.512Z,9.30
2017-10-06T18:21:09.620Z,9.20
2017-10-06T18:23:35.957Z,9.20
2017-10-06T18:26:02.376Z,9.20
2017-10-06T18:28:29.500Z,9.20
2017-10-06T18:30:57.349Z,9.10
2017-10-06T18:33:23.714Z,9.20
2017-10-06T18:35:50.091Z,9.20
2017-10-06T18:38:16.456Z,9.10
2017-10-06T18:40:42.828Z,9.10
2017-10-06T18:43:09.185Z,9.00
2017-10-06T18:45:35.556Z,9.00
2017-10-06T18:48:01.917Z,8.90
2017-10-06T18:50:28.280Z,8.90
2017-10-06T18:52:54.645Z,8.80
2017-10-06T18:55:21.017Z,8.70
2017-10-06T18:57:48.280Z,8.70
2017-10-06T19:00:15.517Z,8.60
2017-10-06T19:02:41.871Z,8.60
2017-10-06T19:05:08.243Z,8.60
2017-10-06T19:07:35.340Z,8.70
2017-10-06T19:10:01.795Z,8.70
2017-10-06T19:12:28.165Z,8.60
2017-10-06T19:14:54.531Z,8.60
2017-10-06T19:17:21.648Z,8.60
2017-10-06T19:19:48.047Z,8.50
2017-10-06T19:22:14.414Z,8.50
2017-10-06T19:24:40.775Z,8.50
2017-10-06T19:27:07.148Z,8.60
2017-10-06T19:29:33.525Z,8.60
2017-10-06T19:31:59.878Z,8.60
2017-10-06T19:34:26.271Z,8.70
2017-10-06T19:36:53.393Z,8.60
2017-10-06T19:39:19.763Z,8.60
2017-10-06T19:41:46.168Z,8.70
2017-10-06T19:44:12.577Z,8.70
2017-10-06T19:46:39.693Z,8.90
2017-10-06T19:49:06.068Z,8.90
2017-10-06T19:51:33.195Z,9.10
2017-10-06T19:53:59.569Z,9.10
2017-10-06T19:56:25.935Z,9.20
2017-10-06T19:58:52.368Z,9.20
2017-10-06T20:01:19.479Z,9.40
2017-10-06T20:03:45.853Z,9.40
2017-10-06T20:06:13.697Z,9.50
2017-10-06T20:08:40.076Z,9.50
2017-10-06T20:11:07.209Z,9.60
2017-10-06T20:13:33.620Z,9.50
2017-10-06T20:16:00.012Z,9.60
2017-10-06T20:18:26.372Z,9.70
2017-10-06T20:20:52.773Z,9.60
2017-10-06T20:23:19.149Z,9.60
2017-10-06T20:25:46.313Z,9.30
2017-10-06T20:28:12.667Z,9.30
2017-10-06T20:30:39.192Z,9.20
2017-10-06T20:33:05.541Z,9.00
2017-10-06T20:35:31.892Z,8.90
2017-10-06T20:37:58.245Z,8.80
2017-10-06T20:40:24.893Z,8.70
2017-10-06T20:42:52.021Z,8.50
2017-10-06T20:45:18.431Z,8.50
2017-10-06T20:47:45.568Z,8.40
2017-10-06T20:50:12.716Z,8.40
2017-10-06T20:52:40.557Z,8.30
2017-10-06T20:55:06.919Z,8.30
2017-10-06T20:57:33.293Z,8.30
2017-10-06T21:00:00.408Z,8.20
2017-10-06T21:02:26.810Z,8.20
2017-10-06T21:04:54.143Z,8.10
2017-10-06T21:07:21.997Z,8.10
2017-10-06T21:09:48.361Z,8.10
2017-10-06T21:12:14.721Z,8.10
2017-10-06T21:14:42.615Z,8.10
2017-10-06T21:17:09.715Z,8.20
2017-10-06T21:19:36.222Z,8.10
2017-10-06T21:22:02.592Z,8.30
2017-10-06T21:24:29.701Z,8.60
2017-10-06T21:26:56.031Z,8.60
2017-10-06T21:29:22.381Z,8.70
2017-10-06T21:31:48.776Z,8.80
2017-10-06T21:34:15.121Z,8.90
2017-10-06T21:36:42.252Z,9.00
2017-10-06T21:39:08.596Z,9.00
2017-10-06T21:41:34.951Z,9.00
2017-10-06T21:44:02.776Z,9.10
2017-10-06T21:46:29.160Z,9.20
2017-10-06T21:48:55.549Z,9.20
2017-10-06T21:51:21.920Z,9.20
2017-10-06T21:53:48.293Z,9.10
2017-10-06T21:56:15.393Z,9.20
2017-10-06T21:58:41.772Z,9.10
2017-10-06T22:01:08.151Z,9.20
2017-10-06T22:03:34.522Z,9.30
2017-10-06T22:06:00.908Z,9.30
2017-10-06T22:08:27.265Z,9.30
2017-10-06T22:10:53.619Z,9.30
2017-10-06T22:13:20.750Z,9.30
2017-10-06T22:15:47.085Z,9.30
2017-10-06T22:18:13.444Z,9.40
2017-10-06T22:20:40.621Z,9.40
2017-10-06T22:23:06.969Z,9.40
2017-10-06T22:25:33.329Z,9.40
2017-10-06T22:28:00.388Z,9.50
2017-10-06T22:30:27.528Z,9.50
2017-10-06T22:32:54.627Z,9.50
2017-10-06T22:35:21.194Z,9.50
2017-10-06T22:37:47.524Z,9.60
2017-10-06T22:40:13.919Z,9.60
2017-10-06T22:42:40.996Z,9.60
2017-10-06T22:45:08.100Z,9.60
2017-10-06T22:47:34.424Z,9.50
2017-10-06T22:50:00.748Z,9.60
2017-10-06T22:52:27.882Z,9.60
2017-10-06T22:54:54.240Z,9.50
2017-10-06T22:57:20.608Z,9.50
2017-10-06T22:59:46.955Z,9.60
2017-10-06T23:02:13.315Z,9.60
2017-10-06T23:04:39.667Z,9.50
2017-10-06T23:07:05.992Z,9.50
2017-10-06T23:09:32.379Z,9.50
2017-10-06T23:11:58.707Z,9.60
2017-10-06T23:14:25.199Z,9.60
2017-10-06T23:16:51.579Z,9.60
2017-10-06T23:19:17.912Z,9.60
2017-10-06T23:21:44.241Z,9.60
2017-10-06T23:24:11.324Z,9.50
2017-10-06T23:26:37.706Z,9.40
2017-10-06T23:29:04.090Z,9.40
2017-10-06T23:31:30.438Z,9.30
2017-10-06T23:33:56.777Z,9.30
2017-10-06T23:36:23.172Z,9.30
2017-10-06T23:38:49.508Z,9.40
2017-10-06T23:41:15.870Z,9.40
2017-10-06T23:43:42.188Z,9.50
2017-10-06T23:46:08.575Z,9.50
2017-10-06T23:48:35.648Z,9.50
2017-10-06T23:51:02.744Z,9.50
2017-10-06T23:53:29.052Z,9.50
2017-10-06T23:55:55.396Z,9.60
2017-10-06T23:58:22.452Z,9.60
